Main page
METAR-TAF:

METAR-TAF

Airports :

Glasgow Prestwick Airport

Glasgow-Prestwick, Scotland

latitude: 55-30N, longitude: 004-35W, elevation: 20 m

Current weather observation

The report was made 39 minutes ago, at 21:50 UTC
Wind 10 kt from the West/Northwest
Temperature 15°C
Humidity 88%
Pressure 1006 hPa
Visibility 10 km or more
Few clouds at a height of 2700 ft

METAR: EGPK 302150Z 30010KT 9999 FEW027 15/13 Q1006

Time: 23:29 (22:29 UTC)

Forecast

The report was made 5 hours and 31 minutes ago, at 16:58 UTC
Forecast valid from 30 at 18 UTC to 31 at 18 UTC
Wind 8 kt from the West/Northwest
Visibility 10 km or more
Scattered clouds at a height of 3500 ft
Probability 30% :
Temporary
from 30 at 18 UTC to 30 at 19 UTC
Visibility: 6000 m
rain showers
Probability 40% :
Temporary
from 31 at 03 UTC to 31 at 07 UTC
Broken clouds at a height of 800 ft

TAF: EGPK 301658Z 3018/3118 30008KT 9999 SCT035 PROB30 TEMPO 3018/3019 6000 SHRA PROB40 TEMPO 3103/3107 BKN008

Weather observations and forecasts of more than 4000 airports (METAR and TAF reports).

The available stations are represented by yellow and red dots on the map.

Hover mouse over dot to see the name of the station.

Then click to see weather observations and forecasts.

To change the map : click on the green buttons with a black cross to zoom in, on the green button with a dash to zoom out, or on the green arrows for adjacent maps.


METAR-TAF: